createdAt,value
2018-05-09T00:00:49.043Z,17.79
2018-05-09T00:03:16.535Z,17.77
2018-05-09T00:05:44.049Z,17.74
2018-05-09T00:08:11.545Z,17.71
2018-05-09T00:10:39.141Z,17.67
2018-05-09T00:13:06.627Z,17.59
2018-05-09T00:15:34.082Z,17.58
2018-05-09T00:18:01.539Z,17.58
2018-05-09T00:20:29.030Z,17.57
2018-05-09T00:22:56.537Z,17.57
2018-05-09T00:25:24.013Z,17.56
2018-05-09T00:27:51.473Z,17.52
2018-05-09T00:30:18.935Z,17.54
2018-05-09T00:32:46.428Z,17.48
2018-05-09T00:35:13.921Z,17.48
2018-05-09T00:37:41.412Z,17.42
2018-05-09T00:40:08.901Z,17.36
2018-05-09T00:42:36.394Z,17.26
2018-05-09T00:45:03.875Z,17.18
2018-05-09T00:47:31.365Z,17.11
2018-05-09T00:49:58.887Z,17.07
2018-05-09T00:52:26.413Z,17.05
2018-05-09T00:54:53.879Z,17.01
2018-05-09T00:57:21.419Z,17.00
2018-05-09T00:59:48.879Z,16.97
2018-05-09T01:02:16.360Z,16.94
2018-05-09T01:04:43.934Z,16.90
2018-05-09T01:07:11.414Z,16.87
2018-05-09T01:09:38.935Z,16.85
2018-05-09T01:12:06.412Z,16.81
2018-05-09T01:14:33.894Z,16.78
2018-05-09T01:17:01.409Z,16.76
2018-05-09T01:19:28.888Z,16.73
2018-05-09T01:21:56.382Z,16.68
2018-05-09T01:24:23.843Z,16.64
2018-05-09T01:26:51.336Z,16.62
2018-05-09T01:29:18.826Z,16.59
2018-05-09T01:31:46.329Z,16.59
2018-05-09T01:34:13.834Z,16.60
2018-05-09T01:36:41.292Z,16.56
2018-05-09T01:39:08.786Z,16.54
2018-05-09T01:41:36.305Z,16.47
2018-05-09T01:44:03.789Z,16.45
2018-05-09T01:46:31.438Z,16.42
2018-05-09T01:48:58.940Z,16.41
2018-05-09T01:51:26.450Z,16.40
2018-05-09T01:53:54.018Z,16.40
2018-05-09T01:56:21.497Z,16.35
2018-05-09T01:58:49.073Z,16.30
2018-05-09T02:01:16.645Z,16.30
2018-05-09T02:03:44.105Z,16.32
2018-05-09T02:06:11.637Z,16.32
2018-05-09T02:08:39.094Z,16.28
2018-05-09T02:11:06.679Z,16.25
2018-05-09T02:13:34.177Z,16.23
2018-05-09T02:16:01.630Z,16.21
2018-05-09T02:18:29.211Z,16.17
2018-05-09T02:20:56.707Z,16.13
2018-05-09T02:23:24.155Z,16.09
2018-05-09T02:25:51.661Z,16.04
2018-05-09T02:28:19.153Z,16.01
2018-05-09T02:30:46.608Z,15.94
2018-05-09T02:33:14.105Z,15.94
2018-05-09T02:35:41.589Z,15.91
2018-05-09T02:38:09.107Z,15.91
2018-05-09T02:40:36.649Z,15.87
2018-05-09T02:43:04.134Z,15.83
2018-05-09T02:45:31.629Z,15.78
2018-05-09T02:47:59.171Z,15.73
2018-05-09T02:50:26.643Z,15.72
2018-05-09T02:52:54.146Z,15.73
2018-05-09T02:55:21.675Z,15.72
2018-05-09T02:57:49.136Z,15.68
2018-05-09T03:00:16.601Z,15.65
2018-05-09T03:02:44.198Z,15.62
2018-05-09T03:05:11.689Z,15.59
2018-05-09T03:07:39.172Z,15.57
2018-05-09T03:10:06.699Z,15.54
2018-05-09T03:12:34.150Z,15.52
2018-05-09T03:15:01.612Z,15.56
2018-05-09T03:17:29.117Z,15.57
2018-05-09T03:19:56.618Z,15.56
2018-05-09T03:22:24.080Z,15.58
2018-05-09T03:24:51.568Z,15.56
2018-05-09T03:27:19.145Z,15.56
2018-05-09T03:29:46.679Z,15.57
2018-05-09T03:32:14.437Z,15.57
2018-05-09T03:34:41.949Z,15.56
2018-05-09T03:37:09.418Z,15.59
2018-05-09T03:39:36.988Z,15.64
2018-05-09T03:42:04.476Z,15.64
2018-05-09T03:44:31.966Z,15.61
2018-05-09T03:46:59.481Z,15.63
2018-05-09T03:49:27.023Z,15.66
2018-05-09T03:51:54.525Z,15.70
2018-05-09T03:54:22.043Z,15.69
2018-05-09T03:56:49.508Z,15.76
2018-05-09T03:59:17.034Z,15.79
2018-05-09T04:01:56.228Z,15.83
2018-05-09T04:04:35.593Z,15.91
2018-05-09T04:07:15.112Z,16.00
2018-05-09T04:09:55.574Z,16.05
2018-05-09T04:12:23.050Z,16.15
2018-05-09T04:14:50.602Z,16.29
2018-05-09T04:17:18.091Z,16.32
2018-05-09T04:19:45.592Z,16.25
2018-05-09T04:22:13.111Z,16.36
2018-05-09T04:24:40.621Z,16.64
2018-05-09T04:27:08.086Z,16.80
2018-05-09T04:29:35.632Z,16.86
2018-05-09T04:32:03.117Z,16.81
2018-05-09T04:34:30.588Z,16.70
2018-05-09T04:36:58.109Z,16.79
2018-05-09T04:39:25.585Z,16.84
2018-05-09T04:41:53.121Z,17.16
2018-05-09T04:44:20.525Z,17.76
2018-05-09T04:46:47.985Z,19.01
2018-05-09T04:49:15.548Z,19.83
2018-05-09T04:51:43.006Z,20.64
2018-05-09T04:54:10.505Z,21.37
2018-05-09T04:56:38.022Z,22.05
2018-05-09T04:59:05.556Z,21.75
2018-05-09T05:01:33.050Z,21.82
2018-05-09T05:04:00.511Z,21.80
2018-05-09T05:06:28.021Z,21.37
2018-05-09T05:08:55.511Z,20.23
2018-05-09T05:11:23.020Z,19.52
2018-05-09T05:13:50.558Z,18.74
2018-05-09T05:16:18.103Z,18.26
2018-05-09T05:18:45.704Z,17.88
2018-05-09T05:21:13.190Z,17.74
2018-05-09T05:23:40.704Z,17.86
2018-05-09T05:26:08.187Z,17.95
2018-05-09T05:28:35.669Z,17.72
2018-05-09T05:31:03.129Z,17.67
2018-05-09T05:33:30.637Z,17.67
2018-05-09T05:35:58.127Z,17.84
2018-05-09T05:38:25.702Z,18.03
2018-05-09T05:40:53.181Z,18.17
2018-05-09T05:43:20.698Z,18.00
2018-05-09T05:45:48.196Z,17.94
2018-05-09T05:48:15.669Z,18.02
2018-05-09T05:50:43.176Z,18.02
2018-05-09T05:53:10.654Z,18.12
2018-05-09T05:55:38.135Z,18.23
2018-05-09T05:58:05.645Z,18.19
2018-05-09T06:00:33.100Z,18.11
2018-05-09T06:03:00.609Z,18.09
2018-05-09T06:05:28.093Z,18.12
2018-05-09T06:07:55.608Z,18.25
2018-05-09T06:10:23.121Z,18.28
2018-05-09T06:12:50.582Z,18.41
2018-05-09T06:15:18.055Z,18.66
2018-05-09T06:17:45.550Z,18.88
2018-05-09T06:20:13.003Z,18.88
2018-05-09T06:22:40.500Z,19.19
2018-05-09T06:25:07.962Z,19.41
2018-05-09T06:27:35.468Z,19.53
2018-05-09T06:30:02.977Z,19.73
2018-05-09T06:32:30.436Z,19.87
2018-05-09T06:34:57.941Z,20.07
2018-05-09T06:37:25.512Z,20.26
2018-05-09T06:39:52.974Z,20.35
2018-05-09T06:42:20.432Z,20.47
2018-05-09T06:44:47.945Z,20.42
2018-05-09T06:47:15.448Z,20.56
2018-05-09T06:49:42.944Z,20.64
2018-05-09T06:52:10.449Z,20.77
2018-05-09T06:54:37.905Z,20.72
2018-05-09T06:57:05.360Z,20.32
2018-05-09T06:59:32.871Z,20.21
2018-05-09T07:02:00.332Z,20.01
2018-05-09T07:04:27.788Z,20.07
2018-05-09T07:06:55.383Z,20.19
2018-05-09T07:09:22.875Z,20.39
2018-05-09T07:11:50.368Z,20.62
2018-05-09T07:14:17.926Z,20.86
2018-05-09T07:16:45.397Z,20.77
2018-05-09T07:19:12.894Z,20.78
2018-05-09T07:21:40.409Z,21.02
2018-05-09T07:24:07.864Z,21.22
2018-05-09T07:26:35.372Z,21.25
2018-05-09T07:29:02.993Z,21.08
2018-05-09T07:31:30.493Z,20.86
2018-05-09T07:33:57.965Z,20.89
2018-05-09T07:36:25.542Z,21.12
2018-05-09T07:38:53.117Z,21.39
2018-05-09T07:41:20.597Z,21.54
2018-05-09T07:43:48.117Z,21.19
2018-05-09T07:46:15.673Z,21.30
2018-05-09T07:48:43.184Z,21.42
2018-05-09T07:51:10.842Z,21.73
2018-05-09T07:53:38.359Z,22.07
2018-05-09T07:56:05.847Z,22.18
2018-05-09T07:58:33.298Z,22.07
2018-05-09T08:01:00.892Z,21.96
2018-05-09T08:03:28.355Z,21.88
2018-05-09T08:05:56.173Z,21.92
2018-05-09T08:08:23.670Z,22.11
2018-05-09T08:10:51.209Z,22.19
2018-05-09T08:13:18.689Z,22.28
2018-05-09T08:15:46.171Z,22.38
2018-05-09T08:18:13.656Z,22.28
2018-05-09T08:20:41.193Z,22.22
2018-05-09T08:23:08.788Z,22.15
2018-05-09T08:25:36.303Z,22.30
2018-05-09T08:28:03.760Z,22.27
2018-05-09T08:30:31.261Z,22.51
2018-05-09T08:32:58.837Z,22.75
2018-05-09T08:35:26.334Z,23.03
2018-05-09T08:37:53.801Z,22.93
2018-05-09T08:40:21.400Z,22.84
2018-05-09T08:42:48.894Z,23.01
2018-05-09T08:45:16.356Z,23.04
2018-05-09T08:47:43.873Z,23.14
2018-05-09T08:50:11.357Z,23.26
2018-05-09T08:52:38.808Z,23.14
2018-05-09T08:55:06.346Z,23.18
2018-05-09T08:57:33.820Z,23.34
2018-05-09T09:00:01.339Z,23.30
2018-05-09T09:02:28.833Z,23.45
2018-05-09T09:04:56.294Z,23.66
2018-05-09T09:07:23.833Z,24.07
2018-05-09T09:09:51.349Z,24.32
2018-05-09T09:12:19.056Z,24.55
2018-05-09T09:14:46.560Z,24.63
2018-05-09T09:17:14.356Z,24.69
2018-05-09T09:19:42.025Z,24.67
2018-05-09T09:22:09.996Z,24.44
2018-05-09T09:24:37.517Z,24.29
2018-05-09T09:27:04.999Z,24.38
2018-05-09T09:29:32.499Z,24.40
2018-05-09T09:32:00.022Z,24.53
2018-05-09T09:34:27.552Z,24.74
2018-05-09T09:36:55.451Z,25.00
2018-05-09T09:39:22.938Z,25.22
2018-05-09T09:41:50.508Z,25.23
2018-05-09T09:44:17.976Z,25.12
2018-05-09T09:46:45.461Z,25.19
2018-05-09T09:49:12.988Z,25.17
2018-05-09T09:51:40.481Z,25.28
2018-05-09T09:54:07.983Z,25.50
2018-05-09T09:56:35.555Z,25.68
2018-05-09T09:59:03.060Z,25.73
2018-05-09T10:01:30.526Z,25.56
2018-05-09T10:03:58.022Z,25.55
2018-05-09T10:06:25.583Z,25.56
2018-05-09T10:08:53.061Z,25.51
2018-05-09T10:11:20.551Z,25.55
2018-05-09T10:13:48.069Z,25.39
2018-05-09T10:16:15.606Z,25.58
2018-05-09T10:18:43.003Z,25.83
2018-05-09T10:21:10.493Z,26.07
2018-05-09T10:23:37.974Z,26.10
2018-05-09T10:26:05.508Z,26.09
2018-05-09T10:28:33.117Z,26.25
2018-05-09T10:31:00.585Z,26.43
2018-05-09T10:33:28.060Z,26.49
2018-05-09T10:35:55.634Z,26.44
2018-05-09T10:38:23.051Z,26.38
2018-05-09T10:40:50.544Z,26.54
2018-05-09T10:43:18.054Z,26.34
2018-05-09T10:45:45.560Z,26.39
2018-05-09T10:48:13.048Z,26.55
2018-05-09T10:50:40.530Z,26.70
2018-05-09T10:53:08.024Z,26.70
2018-05-09T10:55:35.508Z,26.49
2018-05-09T10:58:03.086Z,26.38
2018-05-09T11:00:30.580Z,26.40
2018-05-09T11:02:58.084Z,26.60
2018-05-09T11:05:25.578Z,26.79
2018-05-09T11:07:53.045Z,26.94
2018-05-09T11:10:20.524Z,26.60
2018-05-09T11:12:48.004Z,26.68
2018-05-09T11:15:15.501Z,26.93
2018-05-09T11:17:42.991Z,27.10
2018-05-09T11:20:10.503Z,27.26
2018-05-09T11:22:38.003Z,27.34
2018-05-09T11:25:05.503Z,27.17
2018-05-09T11:27:32.998Z,27.00
2018-05-09T11:30:00.485Z,26.79
2018-05-09T11:32:28.018Z,26.71
2018-05-09T11:34:55.520Z,27.02
2018-05-09T11:37:23.084Z,27.23
2018-05-09T11:39:50.536Z,27.12
2018-05-09T11:42:18.086Z,26.93
2018-05-09T11:44:45.593Z,26.92
2018-05-09T11:47:13.129Z,27.04
2018-05-09T11:49:40.676Z,27.22
2018-05-09T11:52:08.146Z,27.26
2018-05-09T11:54:35.598Z,27.07
2018-05-09T11:57:03.107Z,27.16
2018-05-09T11:59:30.696Z,27.66
2018-05-09T12:01:58.193Z,27.74
2018-05-09T12:04:25.712Z,27.55
2018-05-09T12:06:53.193Z,27.22
2018-05-09T12:09:20.659Z,26.96
2018-05-09T12:11:48.165Z,26.93
2018-05-09T12:14:15.749Z,26.87
2018-05-09T12:16:43.210Z,26.88
2018-05-09T12:19:10.807Z,27.06
2018-05-09T12:21:38.357Z,27.30
2018-05-09T12:24:05.810Z,27.46
2018-05-09T12:26:35.514Z,27.34
2018-05-09T12:29:03.034Z,27.19
2018-05-09T12:31:30.551Z,27.01
2018-05-09T12:33:58.042Z,27.12
2018-05-09T12:36:25.520Z,27.23
2018-05-09T12:38:52.975Z,27.14
2018-05-09T12:41:20.492Z,27.21
2018-05-09T12:43:47.970Z,27.37
2018-05-09T12:46:15.452Z,27.59
2018-05-09T12:48:42.999Z,27.69
2018-05-09T12:51:10.433Z,27.86
2018-05-09T12:53:37.925Z,27.67
2018-05-09T12:56:05.435Z,27.39
2018-05-09T12:58:32.955Z,27.38
2018-05-09T13:01:00.494Z,27.44
2018-05-09T13:03:27.986Z,27.61
2018-05-09T13:05:55.478Z,27.58
2018-05-09T13:08:22.960Z,27.38
2018-05-09T13:10:50.418Z,27.51
2018-05-09T13:13:18.101Z,27.54
2018-05-09T13:15:45.534Z,27.68
2018-05-09T13:18:13.013Z,27.60
2018-05-09T13:20:40.497Z,27.43
2018-05-09T13:23:07.953Z,27.46
2018-05-09T13:25:35.408Z,27.47
2018-05-09T13:28:02.876Z,27.56
2018-05-09T13:30:30.392Z,27.34
2018-05-09T13:32:57.873Z,27.40
2018-05-09T13:35:25.432Z,27.59
2018-05-09T13:37:52.888Z,27.51
2018-05-09T13:40:20.578Z,27.67
2018-05-09T13:42:48.040Z,27.74
2018-05-09T13:45:15.510Z,27.90
2018-05-09T13:47:43.021Z,27.84
2018-05-09T13:50:10.614Z,27.78
2018-05-09T13:52:38.249Z,27.78
2018-05-09T13:55:05.736Z,27.73
2018-05-09T13:57:33.229Z,27.64
2018-05-09T14:00:00.732Z,27.58
2018-05-09T14:02:28.236Z,27.72
2018-05-09T14:04:55.864Z,27.88
2018-05-09T14:07:23.325Z,27.90
2018-05-09T14:09:50.814Z,28.02
2018-05-09T14:12:18.333Z,28.24
2018-05-09T14:14:45.787Z,28.09
2018-05-09T14:17:13.280Z,27.97
2018-05-09T14:19:40.818Z,27.85
2018-05-09T14:22:08.354Z,27.93
2018-05-09T14:24:35.863Z,27.97
2018-05-09T14:27:03.370Z,28.15
2018-05-09T14:29:30.871Z,28.21
2018-05-09T14:31:58.396Z,28.24
2018-05-09T14:34:25.917Z,28.17
2018-05-09T14:36:53.383Z,27.84
2018-05-09T14:39:20.956Z,27.61
2018-05-09T14:41:48.427Z,27.48
2018-05-09T14:44:15.922Z,27.30
2018-05-09T14:46:43.491Z,27.43
2018-05-09T14:49:10.929Z,27.73
2018-05-09T14:51:38.431Z,27.95
2018-05-09T14:54:06.013Z,27.85
2018-05-09T14:56:34.472Z,27.88
2018-05-09T14:59:01.932Z,28.06
2018-05-09T15:01:29.445Z,28.21
2018-05-09T15:03:56.936Z,28.32
2018-05-09T15:06:24.564Z,28.24
2018-05-09T15:08:52.021Z,29.14
2018-05-09T15:11:19.616Z,30.98
2018-05-09T15:13:47.206Z,32.19
2018-05-09T15:16:14.660Z,32.39
2018-05-09T15:18:42.255Z,30.97
2018-05-09T15:21:09.799Z,29.82
2018-05-09T15:23:37.245Z,28.95
2018-05-09T15:26:04.706Z,28.34
2018-05-09T15:28:32.223Z,28.25
2018-05-09T15:30:59.709Z,28.75
2018-05-09T15:33:27.208Z,28.85
2018-05-09T15:35:54.695Z,28.76
2018-05-09T15:38:22.192Z,28.95
2018-05-09T15:40:49.710Z,28.38
2018-05-09T15:43:17.170Z,28.10
2018-05-09T15:45:44.757Z,29.22
2018-05-09T15:48:12.234Z,30.80
2018-05-09T15:50:39.775Z,31.93
2018-05-09T15:53:07.264Z,31.92
2018-05-09T15:55:34.797Z,30.83
2018-05-09T15:58:02.251Z,29.83
2018-05-09T16:00:29.754Z,28.80
2018-05-09T16:02:57.237Z,29.58
2018-05-09T16:05:24.683Z,30.02
2018-05-09T16:07:52.146Z,29.53
2018-05-09T16:10:19.679Z,28.95
2018-05-09T16:12:47.158Z,29.20
2018-05-09T16:15:14.650Z,29.82
2018-05-09T16:17:42.136Z,30.45
2018-05-09T16:20:09.776Z,30.32
2018-05-09T16:22:37.213Z,29.32
2018-05-09T16:25:04.755Z,28.62
2018-05-09T16:27:32.355Z,28.51
2018-05-09T16:29:59.878Z,28.28
2018-05-09T16:32:27.763Z,28.10
2018-05-09T16:34:55.241Z,27.66
2018-05-09T16:37:22.850Z,27.36
2018-05-09T16:39:50.342Z,27.01
2018-05-09T16:42:17.799Z,26.97
2018-05-09T16:44:45.265Z,26.92
2018-05-09T16:47:12.724Z,26.76
2018-05-09T16:49:40.221Z,26.65
2018-05-09T16:52:07.764Z,26.53
2018-05-09T16:54:35.294Z,26.57
2018-05-09T16:57:02.785Z,26.69
2018-05-09T16:59:30.281Z,26.75
2018-05-09T17:01:57.786Z,26.81
2018-05-09T17:04:25.270Z,26.75
2018-05-09T17:06:52.728Z,26.63
2018-05-09T17:09:20.238Z,26.52
2018-05-09T17:11:47.721Z,26.39
2018-05-09T17:14:15.296Z,26.24
2018-05-09T17:16:42.805Z,26.15
2018-05-09T17:19:10.286Z,26.10
2018-05-09T17:21:46.513Z,26.11
2018-05-09T17:24:14.001Z,26.10
2018-05-09T17:26:41.550Z,26.10
2018-05-09T17:29:09.009Z,26.11
2018-05-09T17:31:36.463Z,26.08
2018-05-09T17:34:03.977Z,26.07
2018-05-09T17:36:31.439Z,26.04
2018-05-09T17:38:58.916Z,26.00
2018-05-09T17:41:26.477Z,26.02
2018-05-09T17:43:53.985Z,26.11
2018-05-09T17:46:21.444Z,26.06
2018-05-09T17:48:48.952Z,25.64
2018-05-09T17:51:16.432Z,25.15
2018-05-09T17:53:43.899Z,24.81
2018-05-09T17:56:11.575Z,24.48
2018-05-09T17:58:39.105Z,24.16
2018-05-09T18:01:06.617Z,23.78
2018-05-09T18:06:08.126Z,22.15
2018-05-09T18:08:35.674Z,21.37
2018-05-09T18:11:03.227Z,20.64
2018-05-09T18:13:30.744Z,20.06
2018-05-09T18:15:58.450Z,19.76
2018-05-09T18:18:25.937Z,19.70
2018-05-09T18:20:53.496Z,19.64
2018-05-09T18:23:20.950Z,19.62
2018-05-09T18:25:48.542Z,19.63
2018-05-09T18:28:15.984Z,19.70
2018-05-09T18:30:43.482Z,19.75
2018-05-09T18:33:10.970Z,19.76
2018-05-09T18:35:38.581Z,19.75
2018-05-09T18:38:06.039Z,19.73
2018-05-09T18:40:33.765Z,19.65
2018-05-09T18:43:01.364Z,19.59
2018-05-09T18:45:28.872Z,19.60
2018-05-09T18:47:56.414Z,19.64
2018-05-09T18:50:23.873Z,19.65
2018-05-09T18:52:51.464Z,19.71
2018-05-09T18:55:19.049Z,19.73
2018-05-09T18:57:46.539Z,19.76
2018-05-09T19:00:14.062Z,19.74
2018-05-09T19:02:41.564Z,19.71
2018-05-09T19:05:09.077Z,19.63
2018-05-09T19:07:36.608Z,19.63
2018-05-09T19:10:04.076Z,19.56
2018-05-09T19:12:31.570Z,19.50
2018-05-09T19:14:59.065Z,19.52
2018-05-09T19:17:26.535Z,19.56
2018-05-09T19:19:54.013Z,19.61
2018-05-09T19:22:21.480Z,19.66
2018-05-09T19:24:48.968Z,19.73
2018-05-09T19:27:16.452Z,19.74
2018-05-09T19:29:43.985Z,19.75
2018-05-09T19:32:11.575Z,19.74
2018-05-09T19:34:39.032Z,19.72
2018-05-09T19:37:06.545Z,19.77
2018-05-09T19:39:34.023Z,19.76
2018-05-09T19:42:01.492Z,19.76
2018-05-09T19:44:28.993Z,19.78
2018-05-09T19:46:56.456Z,19.82
2018-05-09T19:49:23.972Z,19.90
2018-05-09T19:51:51.432Z,20.00
2018-05-09T19:54:18.943Z,20.04
2018-05-09T19:56:46.482Z,20.04
2018-05-09T19:59:13.956Z,20.02
2018-05-09T20:01:41.458Z,20.00
2018-05-09T20:04:08.981Z,19.98
2018-05-09T20:06:36.487Z,20.00
2018-05-09T20:09:03.987Z,20.01
2018-05-09T20:11:31.477Z,20.05
2018-05-09T20:13:59.039Z,20.08
2018-05-09T20:16:26.441Z,20.08
2018-05-09T20:18:53.999Z,20.08
2018-05-09T20:21:21.502Z,20.07
2018-05-09T20:23:48.994Z,20.05
2018-05-09T20:26:16.508Z,20.03
2018-05-09T20:28:49.983Z,20.06
2018-05-09T20:31:35.240Z,20.12
2018-05-09T20:34:02.747Z,20.19
2018-05-09T20:36:30.214Z,20.33
2018-05-09T20:38:57.698Z,20.48
2018-05-09T20:41:25.286Z,20.59
2018-05-09T20:43:52.677Z,20.68
2018-05-09T20:46:20.228Z,20.70
2018-05-09T20:48:47.700Z,20.68
2018-05-09T20:51:15.201Z,20.61
2018-05-09T20:53:42.679Z,20.48
2018-05-09T20:56:10.252Z,20.41
2018-05-09T20:58:37.758Z,20.39
2018-05-09T21:04:11.329Z,20.33
2018-05-09T21:06:38.852Z,20.27
2018-05-09T21:09:06.365Z,20.22
2018-05-09T21:11:33.893Z,20.22
2018-05-09T21:14:01.363Z,20.20
2018-05-09T21:16:28.833Z,20.16
2018-05-09T21:18:56.409Z,20.08
2018-05-09T21:21:23.892Z,20.05
2018-05-09T21:23:51.411Z,19.99
2018-05-09T21:26:18.884Z,19.92
2018-05-09T21:28:46.366Z,19.89
2018-05-09T21:31:13.925Z,19.88
2018-05-09T21:33:41.480Z,19.90
2018-05-09T21:36:08.975Z,19.89
2018-05-09T21:38:36.461Z,19.87
2018-05-09T21:41:03.997Z,19.82
2018-05-09T21:43:31.480Z,19.81
2018-05-09T21:45:58.992Z,19.77
2018-05-09T21:48:26.480Z,19.74
2018-05-09T21:50:54.021Z,19.71
2018-05-09T21:53:21.550Z,19.69
2018-05-09T21:55:49.142Z,19.70
2018-05-09T21:58:16.597Z,19.67
2018-05-09T22:00:44.126Z,19.63
2018-05-09T22:03:11.628Z,19.56
2018-05-09T22:05:39.120Z,19.53
2018-05-09T22:08:06.638Z,19.49
2018-05-09T22:10:34.203Z,19.47
2018-05-09T22:13:01.698Z,19.43
2018-05-09T22:15:29.204Z,19.36
2018-05-09T22:17:56.682Z,19.27
2018-05-09T22:20:24.165Z,19.23
2018-05-09T22:22:51.679Z,19.15
2018-05-09T22:25:19.213Z,19.09
2018-05-09T22:27:46.782Z,19.02
2018-05-09T22:30:14.235Z,18.95
2018-05-09T22:32:41.732Z,18.91
2018-05-09T22:35:09.208Z,18.89
2018-05-09T22:37:36.726Z,18.89
2018-05-09T22:40:04.233Z,18.97
2018-05-09T22:42:31.720Z,19.08
2018-05-09T22:44:59.268Z,18.99
2018-05-09T22:47:26.877Z,18.92
2018-05-09T22:49:54.381Z,18.88
2018-05-09T22:52:21.881Z,18.84
2018-05-09T22:54:49.527Z,18.82
2018-05-09T22:57:16.950Z,18.82
2018-05-09T22:59:44.403Z,18.85
2018-05-09T23:02:11.906Z,18.87
2018-05-09T23:04:39.556Z,18.88
2018-05-09T23:07:07.174Z,18.88
2018-05-09T23:09:34.796Z,18.89
2018-05-09T23:12:02.358Z,18.90
2018-05-09T23:14:29.870Z,18.89
2018-05-09T23:16:57.388Z,18.87
2018-05-09T23:19:24.945Z,18.82
2018-05-09T23:21:52.484Z,18.78
2018-05-09T23:24:19.972Z,18.78
2018-05-09T23:26:47.461Z,18.78
2018-05-09T23:29:14.981Z,18.76
2018-05-09T23:31:42.447Z,18.74
2018-05-09T23:34:09.930Z,18.74
2018-05-09T23:36:37.661Z,18.69
2018-05-09T23:39:05.123Z,18.68
2018-05-09T23:41:32.652Z,18.61
2018-05-09T23:44:00.125Z,18.53
2018-05-09T23:46:27.613Z,18.56
2018-05-09T23:48:55.248Z,18.55
2018-05-09T23:51:22.719Z,18.53
2018-05-09T23:53:50.217Z,18.49
2018-05-09T23:56:17.730Z,18.40
2018-05-09T23:58:45.256Z,18.30
